• Join FlightAware (Why Join?)
  • Login
  • US Flag 
08:29AM EDT


 

Airport Tracker/Info


-or-


 

Live Flight TrackerFlight Track Log ✈ AWI3602 ✈ 31-Jul-2013 ✈ KAGS - KCLT

Flight Track Log - Related Links

Times and Time Zones

All times are in EDT time to prevent confusion due to time zone crossing. See the AWI3602 flight status page for this flight to view local times or setup timezone preferences in your user account.

Time Position Orientation Groundspeed Altitude Reporting Facility
EDT Latitude Longitude Course Direction KTS MPH feet Rate Location/Type
07:12AM 33.4744 -81.9942 351° North 235 270 3,000  Level Atlanta Center
07:13AM 33.5745 -81.9982 351° North  Level FlightAware Approximate
07:13AM 33.5500 -82.0100 350° North 271 312 5,100  Level Atlanta Center
07:14AM 33.6436 -82.0130 346° North  Level FlightAware Approximate
07:14AM 33.6233 -82.0231 352° North 276 318 7,300  Level Atlanta Center
07:15AM 33.7121 -82.0336 346° North  Level FlightAware Approximate
07:15AM 33.7050 -82.0386 351° North 282 325 9,400  Level Atlanta Center
07:16AM 33.7807 -82.0528 351° North  Level FlightAware Approximate
07:16AM 33.7886 -82.0567 350° North 288 331 11,200  Level Atlanta Center
07:17AM 33.8503 -82.0667 351° North  Level FlightAware Approximate
07:17AM 33.8703 -82.0747 350° North 294 338 12,900  Level Atlanta Center
07:18AM 33.9583 -82.0928 350° North 306 352 13,000  Climbing Atlanta Center
07:19AM 34.0358 -82.1086 350° North 306 352 13,000  Level Atlanta Center
07:20AM 34.1236 -82.1267 350° North 313 360 13,000  Level Atlanta Center
07:21AM 34.2200 -82.1447 351° North 326 375 13,000 -600 Level Atlanta Center
07:22AM 34.3089 -82.0822 30° Northeast 345 397 11,800 -1,020 Descending Atlanta Center
07:23AM 34.3864 -81.9822 47° Northeast 354 407 11,000 -420 Descending Atlanta Center
07:24AM 34.4619 -81.8872 46° Northeast 374 430 11,000  Level Atlanta Center
07:25AM 34.5356 -81.7919 47° Northeast 374 430 11,000  Level Atlanta Center
07:26AM 34.5925 -81.7200 46° Northeast 381 438 11,000  Level Atlanta Center
07:27AM 34.6883 -81.6036 45° Northeast 373 429 11,000  Level Atlanta Center
07:27AM 34.6883 -81.6036 45° Northeast 374 430 11,000  Level Atlanta Center
07:28AM 34.7453 -81.5261 48° Northeast 328 377 11,000  Level Atlanta Center
07:29AM 34.8144 -81.4406 45° Northeast 325 374 11,000 -480 Level Atlanta Center
07:30AM 34.8753 -81.3625 46° Northeast 320 368 10,000 -1,020 Descending Atlanta Center
07:31AM 34.9381 -81.2769 48° Northeast 303 349 9,000 -540 Descending Atlanta Center
07:32AM 34.9908 -81.2119 45° Northeast 302 348 9,000  Level Atlanta Center
07:33AM 35.0497 -81.1364 46° Northeast 302 348 9,000  Level Atlanta Center
07:34AM 35.1003 -81.0711 47° Northeast 302 348 9,000 -120 Level Atlanta Center
07:35AM 35.1794 -81.0683 North 276 318 8,800 -1,260 Descending Atlanta Center
07:36AM 35.2967 -81.0794 356° North 277 319 6,000 -1,920 Descending Atlanta Center
07:37AM 35.3719 -81.0867 356° North 262 302 4,200 -1,020 Descending Atlanta Center
07:38AM 35.4322 -81.0744 North 203 234 4,000 -180 Descending Atlanta Center
07:40AM 35.4033 -81.0067 118° Southeast 211 243 3,900 -540 Descending Atlanta Center
07:40AM 35.3628 -80.9725 146° Southeast 213 245 3,000 -780 Descending Atlanta Center
07:41AM 35.3086 -80.9772 184° South 192 221 2,500 -780 Descending Atlanta Center
07:42AM 35.2669 -80.9736 176° South 139 160 1,500 -1,020 Descending Atlanta Center